sensor_id;sensor_type;location;lat;lon;timestamp;pressure;altitude;pressure_sealevel;temperature;humidity
64521;BME280;50896;46.714;17.322;2024-01-07T00:00:08;99040.69;;;5.60;100.00
64521;BME280;50896;46.714;17.322;2024-01-07T00:02:35;99049.91;;;5.56;100.00
64521;BME280;50896;46.714;17.322;2024-01-07T00:05:03;99042.66;;;5.58;100.00
64521;BME280;50896;46.714;17.322;2024-01-07T00:07:30;99049.56;;;5.51;100.00
64521;BME280;50896;46.714;17.322;2024-01-07T00:09:57;99051.72;;;5.47;100.00
64521;BME280;50896;46.714;17.322;2024-01-07T00:12:24;99043.00;;;5.55;100.00
64521;BME280;50896;46.714;17.322;2024-01-07T00:14:51;99046.13;;;5.50;100.00
64521;BME280;50896;46.714;17.322;2024-01-07T00:17:18;99038.38;;;5.40;100.00
64521;BME280;50896;46.714;17.322;2024-01-07T00:19:45;99031.78;;;5.44;100.00
64521;BME280;50896;46.714;17.322;2024-01-07T00:22:12;99028.47;;;5.34;100.00
64521;BME280;50896;46.714;17.322;2024-01-07T00:24:39;99025.50;;;5.29;100.00
64521;BME280;50896;46.714;17.322;2024-01-07T00:27:06;99023.16;;;5.26;100.00
64521;BME280;50896;46.714;17.322;2024-01-07T00:29:35;99025.00;;;5.25;100.00
64521;BME280;50896;46.714;17.322;2024-01-07T00:32:02;99023.16;;;5.26;100.00
64521;BME280;50896;46.714;17.322;2024-01-07T00:34:29;99030.94;;;5.27;100.00
64521;BME280;50896;46.714;17.322;2024-01-07T00:36:56;99033.03;;;5.16;100.00
64521;BME280;50896;46.714;17.322;2024-01-07T00:39:23;99025.16;;;5.24;100.00
64521;BME280;50896;46.714;17.322;2024-01-07T00:41:50;99022.19;;;5.27;100.00
64521;BME280;50896;46.714;17.322;2024-01-07T00:44:16;99023.50;;;5.23;100.00
64521;BME280;50896;46.714;17.322;2024-01-07T00:46:43;99031.72;;;5.20;100.00
64521;BME280;50896;46.714;17.322;2024-01-07T00:49:14;99026.13;;;5.23;100.00
64521;BME280;50896;46.714;17.322;2024-01-07T00:51:42;99032.25;;;5.23;100.00
64521;BME280;50896;46.714;17.322;2024-01-07T00:54:09;99019.53;;;5.19;100.00
64521;BME280;50896;46.714;17.322;2024-01-07T00:56:35;99030.06;;;5.19;100.00
64521;BME280;50896;46.714;17.322;2024-01-07T00:59:02;99024.47;;;5.22;100.00
64521;BME280;50896;46.714;17.322;2024-01-07T01:01:29;99025.94;;;5.16;100.00
64521;BME280;50896;46.714;17.322;2024-01-07T01:03:56;99032.06;;;5.17;100.00
64521;BME280;50896;46.714;17.322;2024-01-07T01:06:25;99032.84;;;5.09;100.00
64521;BME280;50896;46.714;17.322;2024-01-07T01:08:51;99035.63;;;4.99;100.00
64521;BME280;50896;46.714;17.322;2024-01-07T01:11:18;99028.25;;;5.03;100.00
64521;BME280;50896;46.714;17.322;2024-01-07T01:13:46;99030.72;;;5.04;100.00
64521;BME280;50896;46.714;17.322;2024-01-07T01:16:13;99029.06;;;5.11;100.00
64521;BME280;50896;46.714;17.322;2024-01-07T01:18:40;99032.38;;;5.05;100.00
64521;BME280;50896;46.714;17.322;2024-01-07T01:21:08;99030.03;;;5.02;100.00
64521;BME280;50896;46.714;17.322;2024-01-07T01:23:35;99029.72;;;5.05;100.00
64521;BME280;50896;46.714;17.322;2024-01-07T01:26:02;99029.41;;;5.08;100.00
64521;BME280;50896;46.714;17.322;2024-01-07T01:28:29;99025.13;;;5.07;100.00
64521;BME280;50896;46.714;17.322;2024-01-07T01:30:56;99023.97;;;5.10;100.00
64521;BME280;50896;46.714;17.322;2024-01-07T01:33:23;99021.66;;;5.07;100.00
64521;BME280;50896;46.714;17.322;2024-01-07T01:35:50;99024.31;;;5.07;100.00
64521;BME280;50896;46.714;17.322;2024-01-07T01:38:17;99026.25;;;5.05;100.00
64521;BME280;50896;46.714;17.322;2024-01-07T01:40:43;99012.25;;;4.96;100.00
64521;BME280;50896;46.714;17.322;2024-01-07T01:43:10;99026.56;;;4.93;100.00
64521;BME280;50896;46.714;17.322;2024-01-07T01:45:38;99025.19;;;4.81;100.00
64521;BME280;50896;46.714;17.322;2024-01-07T01:48:06;99029.84;;;4.87;100.00
64521;BME280;50896;46.714;17.322;2024-01-07T01:50:33;99026.06;;;4.90;100.00
64521;BME280;50896;46.714;17.322;2024-01-07T01:53:00;99025.69;;;4.76;100.00
64521;BME280;50896;46.714;17.322;2024-01-07T01:55:27;99032.44;;;4.79;100.00
64521;BME280;50896;46.714;17.322;2024-01-07T01:57:55;99033.91;;;4.73;100.00
64521;BME280;50896;46.714;17.322;2024-01-07T02:00:26;99034.91;;;4.81;100.00
64521;BME280;50896;46.714;17.322;2024-01-07T02:02:54;99032.63;;;4.86;100.00
64521;BME280;50896;46.714;17.322;2024-01-07T02:05:21;99024.06;;;4.84;100.00
64521;BME280;50896;46.714;17.322;2024-01-07T02:07:49;99035.28;;;4.86;100.00
64521;BME280;50896;46.714;17.322;2024-01-07T02:10:16;99027.97;;;4.79;100.00
64521;BME280;50896;46.714;17.322;2024-01-07T02:12:43;99027.66;;;4.83;100.00
64521;BME280;50896;46.714;17.322;2024-01-07T02:15:10;99033.09;;;4.81;100.00
64521;BME280;50896;46.714;17.322;2024-01-07T02:17:37;99025.34;;;4.79;100.00
64521;BME280;50896;46.714;17.322;2024-01-07T02:20:04;99025.63;;;4.68;100.00
64521;BME280;50896;46.714;17.322;2024-01-07T02:22:31;99023.69;;;4.70;100.00
64521;BME280;50896;46.714;17.322;2024-01-07T02:24:58;99027.31;;;4.69;100.00
64521;BME280;50896;46.714;17.322;2024-01-07T02:27:25;99029.09;;;4.60;100.00
64521;BME280;50896;46.714;17.322;2024-01-07T02:29:52;99025.44;;;4.61;100.00
64521;BME280;50896;46.714;17.322;2024-01-07T02:32:19;99023.28;;;4.57;100.00
64521;BME280;50896;46.714;17.322;2024-01-07T02:34:45;99025.28;;;4.63;100.00
64521;BME280;50896;46.714;17.322;2024-01-07T02:37:13;99022.66;;;4.63;100.00
64521;BME280;50896;46.714;17.322;2024-01-07T02:39:40;99021.34;;;4.67;100.00
64521;BME280;50896;46.714;17.322;2024-01-07T02:42:09;99010.13;;;4.57;100.00
64521;BME280;50896;46.714;17.322;2024-01-07T02:44:36;99001.88;;;4.52;100.00
64521;BME280;50896;46.714;17.322;2024-01-07T02:47:03;99008.13;;;4.51;100.00
64521;BME280;50896;46.714;17.322;2024-01-07T02:49:30;99005.09;;;4.37;100.00
64521;BME280;50896;46.714;17.322;2024-01-07T02:51:57;99008.97;;;4.25;100.00
64521;BME280;50896;46.714;17.322;2024-01-07T02:54:24;99006.56;;;4.32;100.00
64521;BME280;50896;46.714;17.322;2024-01-07T02:56:52;98997.53;;;4.34;100.00
64521;BME280;50896;46.714;17.322;2024-01-07T02:59:19;98997.69;;;4.33;100.00
64521;BME280;50896;46.714;17.322;2024-01-07T03:01:45;98985.31;;;4.25;100.00
64521;BME280;50896;46.714;17.322;2024-01-07T03:04:15;98997.94;;;4.21;100.00
64521;BME280;50896;46.714;17.322;2024-01-07T03:06:42;98992.53;;;4.23;100.00
64521;BME280;50896;46.714;17.322;2024-01-07T03:09:09;98991.09;;;4.28;100.00
64521;BME280;50896;46.714;17.322;2024-01-07T03:11:40;99004.41;;;4.27;100.00
64521;BME280;50896;46.714;17.322;2024-01-07T03:14:08;99001.28;;;4.32;100.00
64521;BME280;50896;46.714;17.322;2024-01-07T03:16:36;99008.78;;;4.18;100.00
64521;BME280;50896;46.714;17.322;2024-01-07T03:19:02;99001.34;;;4.14;100.00
64521;BME280;50896;46.714;17.322;2024-01-07T03:21:31;99004.03;;;4.22;100.00
64521;BME280;50896;46.714;17.322;2024-01-07T03:23:58;98987.28;;;4.23;100.00
64521;BME280;50896;46.714;17.322;2024-01-07T03:26:29;98999.75;;;4.21;100.00
64521;BME280;50896;46.714;17.322;2024-01-07T03:28:56;98990.41;;;4.26;100.00
64521;BME280;50896;46.714;17.322;2024-01-07T03:31:26;98991.84;;;4.21;100.00
64521;BME280;50896;46.714;17.322;2024-01-07T03:33:53;98994.16;;;4.24;100.00
64521;BME280;50896;46.714;17.322;2024-01-07T03:36:21;99002.50;;;4.11;100.00
64521;BME280;50896;46.714;17.322;2024-01-07T03:38:48;99006.28;;;4.17;100.00
64521;BME280;50896;46.714;17.322;2024-01-07T03:41:16;99005.59;;;4.06;100.00
64521;BME280;50896;46.714;17.322;2024-01-07T03:43:46;99014.97;;;4.09;100.00
64521;BME280;50896;46.714;17.322;2024-01-07T03:46:14;99012.78;;;4.04;100.00
64521;BME280;50896;46.714;17.322;2024-01-07T03:48:41;99015.44;;;4.04;100.00
64521;BME280;50896;46.714;17.322;2024-01-07T03:51:09;99011.59;;;3.99;100.00
64521;BME280;50896;46.714;17.322;2024-01-07T03:53:35;99007.75;;;4.11;100.00
64521;BME280;50896;46.714;17.322;2024-01-07T03:56:02;99009.72;;;4.09;100.00
64521;BME280;50896;46.714;17.322;2024-01-07T03:58:29;99006.81;;;4.20;100.00
64521;BME280;50896;46.714;17.322;2024-01-07T04:00:56;99009.25;;;4.14;100.00
64521;BME280;50896;46.714;17.322;2024-01-07T04:03:23;99009.13;;;3.97;100.00
64521;BME280;50896;46.714;17.322;2024-01-07T04:05:50;99017.34;;;3.94;100.00
64521;BME280;50896;46.714;17.322;2024-01-07T04:08:17;99014.34;;;3.89;100.00
64521;BME280;50896;46.714;17.322;2024-01-07T04:10:44;99021.25;;;3.90;100.00
64521;BME280;50896;46.714;17.322;2024-01-07T04:13:11;99023.97;;;3.80;100.00
64521;BME280;50896;46.714;17.322;2024-01-07T04:15:38;99024.63;;;3.82;100.00
64521;BME280;50896;46.714;17.322;2024-01-07T04:18:05;99022.69;;;3.84;100.00
64521;BME280;50896;46.714;17.322;2024-01-07T04:20:32;99030.81;;;3.73;100.00
64521;BME280;50896;46.714;17.322;2024-01-07T04:22:59;99032.31;;;3.75;100.00
64521;BME280;50896;46.714;17.322;2024-01-07T04:25:26;99033.28;;;3.74;100.00
64521;BME280;50896;46.714;17.322;2024-01-07T04:27:52;99042.16;;;3.73;100.00
64521;BME280;50896;46.714;17.322;2024-01-07T04:30:19;99045.19;;;3.61;100.00
64521;BME280;50896;46.714;17.322;2024-01-07T04:32:46;99050.03;;;3.55;100.00
64521;BME280;50896;46.714;17.322;2024-01-07T04:35:13;99044.88;;;3.64;100.00
64521;BME280;50896;46.714;17.322;2024-01-07T04:37:40;99048.31;;;3.64;100.00
64521;BME280;50896;46.714;17.322;2024-01-07T04:40:07;99051.16;;;3.53;100.00
64521;BME280;50896;46.714;17.322;2024-01-07T04:42:34;99055.22;;;3.47;100.00
64521;BME280;50896;46.714;17.322;2024-01-07T04:45:01;99062.94;;;3.49;100.00
64521;BME280;50896;46.714;17.322;2024-01-07T04:47:30;99063.72;;;3.41;100.00
64521;BME280;50896;46.714;17.322;2024-01-07T04:49:57;99062.59;;;3.44;100.00
64521;BME280;50896;46.714;17.322;2024-01-07T04:52:25;99073.41;;;3.40;100.00
64521;BME280;50896;46.714;17.322;2024-01-07T04:54:55;99073.31;;;3.32;100.00
64521;BME280;50896;46.714;17.322;2024-01-07T04:57:23;99081.97;;;3.42;100.00
64521;BME280;50896;46.714;17.322;2024-01-07T04:59:50;99072.19;;;3.35;100.00
64521;BME280;50896;46.714;17.322;2024-01-07T05:02:18;99082.78;;;3.43;100.00
64521;BME280;50896;46.714;17.322;2024-01-07T05:04:45;99089.66;;;3.26;100.00
64521;BME280;50896;46.714;17.322;2024-01-07T05:07:11;99087.88;;;3.27;100.00
64521;BME280;50896;46.714;17.322;2024-01-07T05:09:39;99091.72;;;3.32;100.00
64521;BME280;50896;46.714;17.322;2024-01-07T05:12:06;99088.16;;;3.23;100.00
64521;BME280;50896;46.714;17.322;2024-01-07T05:14:33;99088.41;;;3.30;100.00
64521;BME280;50896;46.714;17.322;2024-01-07T05:17:00;99087.94;;;3.17;100.00
64521;BME280;50896;46.714;17.322;2024-01-07T05:19:27;99088.44;;;3.20;100.00
64521;BME280;50896;46.714;17.322;2024-01-07T05:21:54;99093.94;;;3.27;100.00
64521;BME280;50896;46.714;17.322;2024-01-07T05:24:21;99085.09;;;3.28;100.00
64521;BME280;50896;46.714;17.322;2024-01-07T05:26:48;99081.78;;;3.26;100.00
64521;BME280;50896;46.714;17.322;2024-01-07T05:29:15;99094.34;;;3.32;100.00
64521;BME280;50896;46.714;17.322;2024-01-07T05:31:42;99097.09;;;3.31;100.00
64521;BME280;50896;46.714;17.322;2024-01-07T05:34:09;99101.97;;;3.25;100.00
64521;BME280;50896;46.714;17.322;2024-01-07T05:36:36;99091.91;;;3.21;100.00
64521;BME280;50896;46.714;17.322;2024-01-07T05:39:03;99096.34;;;3.20;100.00
64521;BME280;50896;46.714;17.322;2024-01-07T05:41:30;99099.91;;;3.19;100.00
64521;BME280;50896;46.714;17.322;2024-01-07T05:43:57;99108.41;;;3.13;100.00
64521;BME280;50896;46.714;17.322;2024-01-07T05:46:24;99105.69;;;3.05;100.00
64521;BME280;50896;46.714;17.322;2024-01-07T05:48:51;99105.31;;;3.18;100.00
64521;BME280;50896;46.714;17.322;2024-01-07T05:51:18;99105.69;;;3.05;100.00
64521;BME280;50896;46.714;17.322;2024-01-07T05:53:45;99111.47;;;3.08;100.00
64521;BME280;50896;46.714;17.322;2024-01-07T05:56:12;99099.66;;;2.95;100.00
64521;BME280;50896;46.714;17.322;2024-01-07T05:58:39;99105.31;;;2.90;100.00
64521;BME280;50896;46.714;17.322;2024-01-07T06:01:07;99100.75;;;2.92;100.00
64521;BME280;50896;46.714;17.322;2024-01-07T06:03:35;99113.59;;;2.95;100.00
64521;BME280;50896;46.714;17.322;2024-01-07T06:06:02;99113.16;;;3.00;100.00
64521;BME280;50896;46.714;17.322;2024-01-07T06:08:29;99110.31;;;2.93;100.00
64521;BME280;50896;46.714;17.322;2024-01-07T06:10:56;99115.97;;;2.88;100.00
64521;BME280;50896;46.714;17.322;2024-01-07T06:13:23;99113.34;;;2.88;100.00
64521;BME280;50896;46.714;17.322;2024-01-07T06:15:51;99112.63;;;2.96;100.00
64521;BME280;50896;46.714;17.322;2024-01-07T06:18:18;99110.69;;;2.98;100.00
64521;BME280;50896;46.714;17.322;2024-01-07T06:20:45;99115.31;;;2.86;100.00
64521;BME280;50896;46.714;17.322;2024-01-07T06:23:12;99118.22;;;2.83;100.00
64521;BME280;50896;46.714;17.322;2024-01-07T06:25:39;99121.91;;;2.90;100.00
64521;BME280;50896;46.714;17.322;2024-01-07T06:28:09;99118.75;;;2.87;100.00
64521;BME280;50896;46.714;17.322;2024-01-07T06:30:37;99113.50;;;2.87;100.00
64521;BME280;50896;46.714;17.322;2024-01-07T06:33:04;99108.84;;;2.81;100.00
64521;BME280;50896;46.714;17.322;2024-01-07T06:35:32;99101.97;;;2.70;100.00
64521;BME280;50896;46.714;17.322;2024-01-07T06:37:59;99122.22;;;2.78;100.00
64521;BME280;50896;46.714;17.322;2024-01-07T06:40:26;99114.34;;;2.78;100.00
64521;BME280;50896;46.714;17.322;2024-01-07T06:42:52;99121.25;;;2.79;100.00
64521;BME280;50896;46.714;17.322;2024-01-07T06:45:19;99120.19;;;2.71;100.00
64521;BME280;50896;46.714;17.322;2024-01-07T06:47:46;99123.06;;;2.78;100.00
64521;BME280;50896;46.714;17.322;2024-01-07T06:50:13;99127.50;;;2.68;100.00
64521;BME280;50896;46.714;17.322;2024-01-07T06:52:40;99132.38;;;2.63;100.00
64521;BME280;50896;46.714;17.322;2024-01-07T06:55:07;99131.00;;;2.59;100.00
64521;BME280;50896;46.714;17.322;2024-01-07T06:57:35;99135.41;;;2.58;100.00
64521;BME280;50896;46.714;17.322;2024-01-07T07:00:02;99137.94;;;2.50;100.00
64521;BME280;50896;46.714;17.322;2024-01-07T07:02:29;99145.25;;;2.46;100.00
64521;BME280;50896;46.714;17.322;2024-01-07T07:04:56;99157.56;;;2.46;100.00
64521;BME280;50896;46.714;17.322;2024-01-07T07:07:23;99155.31;;;2.51;100.00
64521;BME280;50896;46.714;17.322;2024-01-07T07:09:50;99160.16;;;2.46;100.00
64521;BME280;50896;46.714;17.322;2024-01-07T07:12:18;99161.28;;;2.43;100.00
64521;BME280;50896;46.714;17.322;2024-01-07T07:14:46;99169.53;;;2.48;100.00
64521;BME280;50896;46.714;17.322;2024-01-07T07:17:14;99180.03;;;2.48;100.00
64521;BME280;50896;46.714;17.322;2024-01-07T07:19:41;99178.09;;;2.50;100.00
64521;BME280;50896;46.714;17.322;2024-01-07T07:22:11;99186.00;;;2.41;100.00
64521;BME280;50896;46.714;17.322;2024-01-07T07:24:41;99181.56;;;2.41;100.00
64521;BME280;50896;46.714;17.322;2024-01-07T07:27:08;99190.16;;;2.33;100.00
64521;BME280;50896;46.714;17.322;2024-01-07T07:29:35;99193.72;;;2.32;100.00
64521;BME280;50896;46.714;17.322;2024-01-07T07:32:02;99207.78;;;2.31;100.00
64521;BME280;50896;46.714;17.322;2024-01-07T07:34:29;99207.66;;;2.33;100.00
64521;BME280;50896;46.714;17.322;2024-01-07T07:36:56;99203.53;;;2.30;100.00
64521;BME280;50896;46.714;17.322;2024-01-07T07:39:23;99215.94;;;2.28;100.00
64521;BME280;50896;46.714;17.322;2024-01-07T07:41:50;99221.34;;;2.36;100.00
64521;BME280;50896;46.714;17.322;2024-01-07T07:44:17;99234.44;;;2.36;100.00
64521;BME280;50896;46.714;17.322;2024-01-07T07:46:44;99227.69;;;2.34;100.00
64521;BME280;50896;46.714;17.322;2024-01-07T07:49:11;99216.38;;;2.33;100.00
64521;BME280;50896;46.714;17.322;2024-01-07T07:51:39;99235.41;;;2.45;100.00
64521;BME280;50896;46.714;17.322;2024-01-07T07:54:06;99231.00;;;2.36;100.00
64521;BME280;50896;46.714;17.322;2024-01-07T07:56:33;99244.38;;;2.43;100.00
64521;BME280;50896;46.714;17.322;2024-01-07T07:59:02;99244.94;;;2.36;100.00
64521;BME280;50896;46.714;17.322;2024-01-07T08:01:29;99242.31;;;2.46;100.00
64521;BME280;50896;46.714;17.322;2024-01-07T08:03:56;99251.84;;;2.28;100.00
64521;BME280;50896;46.714;17.322;2024-01-07T08:06:23;99258.72;;;2.29;100.00
64521;BME280;50896;46.714;17.322;2024-01-07T08:08:50;99253.25;;;2.32;100.00
64521;BME280;50896;46.714;17.322;2024-01-07T08:11:17;99263.44;;;2.25;100.00
64521;BME280;50896;46.714;17.322;2024-01-07T08:13:45;99267.16;;;2.22;100.00
64521;BME280;50896;46.714;17.322;2024-01-07T08:16:12;99261.91;;;2.22;100.00
64521;BME280;50896;46.714;17.322;2024-01-07T08:18:38;99268.53;;;2.17;100.00
64521;BME280;50896;46.714;17.322;2024-01-07T08:21:06;99270.44;;;2.15;100.00
64521;BME280;50896;46.714;17.322;2024-01-07T08:23:32;99272.13;;;2.16;100.00
64521;BME280;50896;46.714;17.322;2024-01-07T08:25:59;99276.25;;;2.18;100.00
64521;BME280;50896;46.714;17.322;2024-01-07T08:28:26;99277.66;;;2.22;100.00
64521;BME280;50896;46.714;17.322;2024-01-07T08:30:53;99278.88;;;2.09;100.00
64521;BME280;50896;46.714;17.322;2024-01-07T08:33:20;99279.69;;;2.09;100.00
64521;BME280;50896;46.714;17.322;2024-01-07T08:35:47;99276.38;;;2.07;100.00
64521;BME280;50896;46.714;17.322;2024-01-07T08:38:14;99276.91;;;2.01;100.00
64521;BME280;50896;46.714;17.322;2024-01-07T08:40:41;99267.38;;;1.90;100.00
64521;BME280;50896;46.714;17.322;2024-01-07T08:43:08;99271.94;;;1.98;100.00
64521;BME280;50896;46.714;17.322;2024-01-07T08:45:35;99278.03;;;1.98;100.00
64521;BME280;50896;46.714;17.322;2024-01-07T08:48:02;99275.41;;;1.88;100.00
64521;BME280;50896;46.714;17.322;2024-01-07T08:50:29;99262.13;;;1.80;100.00
64521;BME280;50896;46.714;17.322;2024-01-07T08:52:56;99273.16;;;1.84;100.00
64521;BME280;50896;46.714;17.322;2024-01-07T08:55:23;99281.16;;;1.82;100.00
64521;BME280;50896;46.714;17.322;2024-01-07T08:57:50;99274.69;;;1.86;100.00
64521;BME280;50896;46.714;17.322;2024-01-07T09:00:19;99284.19;;;1.78;100.00
64521;BME280;50896;46.714;17.322;2024-01-07T09:02:53;99301.84;;;1.85;100.00
64521;BME280;50896;46.714;17.322;2024-01-07T09:05:46;99295.75;;;1.75;100.00
64521;BME280;50896;46.714;17.322;2024-01-07T09:08:13;99299.06;;;1.77;100.00
64521;BME280;50896;46.714;17.322;2024-01-07T09:10:41;99313.31;;;1.84;100.00
64521;BME280;50896;46.714;17.322;2024-01-07T09:13:08;99319.09;;;1.88;100.00
64521;BME280;50896;46.714;17.322;2024-01-07T09:15:35;99329.41;;;1.80;100.00
64521;BME280;50896;46.714;17.322;2024-01-07T09:18:02;99322.38;;;1.70;100.00
64521;BME280;50896;46.714;17.322;2024-01-07T09:20:29;99323.06;;;1.73;100.00
64521;BME280;50896;46.714;17.322;2024-01-07T09:22:56;99321.69;;;1.78;100.00
64521;BME280;50896;46.714;17.322;2024-01-07T09:25:23;99324.44;;;1.77;100.00
64521;BME280;50896;46.714;17.322;2024-01-07T09:27:50;99320.75;;;1.79;100.00
64521;BME280;50896;46.714;17.322;2024-01-07T09:30:17;99323.22;;;1.81;100.00
64521;BME280;50896;46.714;17.322;2024-01-07T09:32:44;99318.53;;;1.75;100.00
64521;BME280;50896;46.714;17.322;2024-01-07T09:35:11;99314.34;;;1.62;100.00
64521;BME280;50896;46.714;17.322;2024-01-07T09:37:38;99320.00;;;1.67;100.00
64521;BME280;50896;46.714;17.322;2024-01-07T09:40:05;99318.66;;;1.73;100.00
64521;BME280;50896;46.714;17.322;2024-01-07T09:42:33;99324.72;;;1.74;100.00
64521;BME280;50896;46.714;17.322;2024-01-07T09:45:02;99331.59;;;1.65;100.00
64521;BME280;50896;46.714;17.322;2024-01-07T09:47:30;99327.16;;;1.65;100.00
64521;BME280;50896;46.714;17.322;2024-01-07T09:49:57;99335.59;;;1.69;100.00
64521;BME280;50896;46.714;17.322;2024-01-07T09:52:25;99337.19;;;1.60;100.00
64521;BME280;50896;46.714;17.322;2024-01-07T09:54:57;99335.66;;;1.58;100.00
64521;BME280;50896;46.714;17.322;2024-01-07T09:57:25;99339.34;;;1.45;100.00
64521;BME280;50896;46.714;17.322;2024-01-07T09:59:52;99325.91;;;1.60;100.00
64521;BME280;50896;46.714;17.322;2024-01-07T10:02:20;99316.47;;;1.47;100.00
64521;BME280;50896;46.714;17.322;2024-01-07T10:04:48;99322.94;;;1.43;100.00
64521;BME280;50896;46.714;17.322;2024-01-07T10:07:16;99322.78;;;1.45;100.00
64521;BME280;50896;46.714;17.322;2024-01-07T10:09:44;99316.88;;;1.43;100.00
64521;BME280;50896;46.714;17.322;2024-01-07T10:12:11;99332.06;;;1.49;100.00
64521;BME280;50896;46.714;17.322;2024-01-07T10:14:41;99305.25;;;1.35;100.00
64521;BME280;50896;46.714;17.322;2024-01-07T10:17:17;99338.84;;;1.30;100.00
64521;BME280;50896;46.714;17.322;2024-01-07T10:19:45;99332.59;;;1.22;100.00
64521;BME280;50896;46.714;17.322;2024-01-07T10:22:13;99331.00;;;1.30;100.00
64521;BME280;50896;46.714;17.322;2024-01-07T10:24:42;99328.25;;;1.32;100.00
64521;BME280;50896;46.714;17.322;2024-01-07T10:27:10;99327.06;;;1.15;100.00
64521;BME280;50896;46.714;17.322;2024-01-07T10:29:37;99307.13;;;1.02;100.00
64521;BME280;50896;46.714;17.322;2024-01-07T10:32:04;99306.94;;;1.15;100.00
64521;BME280;50896;46.714;17.322;2024-01-07T10:34:33;99311.97;;;1.07;100.00
64521;BME280;50896;46.714;17.322;2024-01-07T10:37:03;99311.66;;;1.00;100.00
64521;BME280;50896;46.714;17.322;2024-01-07T10:39:30;99317.84;;;0.99;100.00
64521;BME280;50896;46.714;17.322;2024-01-07T10:41:57;99308.53;;;0.85;100.00
64521;BME280;50896;46.714;17.322;2024-01-07T10:44:30;99330.22;;;0.97;100.00
64521;BME280;50896;46.714;17.322;2024-01-07T10:46:58;99309.75;;;1.02;100.00
64521;BME280;50896;46.714;17.322;2024-01-07T10:49:27;99310.69;;;0.80;100.00
64521;BME280;50896;46.714;17.322;2024-01-07T10:52:08;99311.63;;;0.79;100.00
64521;BME280;50896;46.714;17.322;2024-01-07T10:54:36;99304.91;;;0.77;100.00
64521;BME280;50896;46.714;17.322;2024-01-07T10:57:22;99305.72;;;0.77;100.00
64521;BME280;50896;46.714;17.322;2024-01-07T10:59:52;99303.66;;;0.81;100.00
64521;BME280;50896;46.714;17.322;2024-01-07T11:02:21;99306.28;;;0.81;100.00
64521;BME280;50896;46.714;17.322;2024-01-07T11:05:14;99291.56;;;0.80;100.00
64521;BME280;50896;46.714;17.322;2024-01-07T11:07:48;99299.16;;;0.83;100.00
64521;BME280;50896;46.714;17.322;2024-01-07T11:10:23;99305.25;;;0.72;100.00
64521;BME280;50896;46.714;17.322;2024-01-07T11:13:04;99302.16;;;0.78;100.00
64521;BME280;50896;46.714;17.322;2024-01-07T11:15:51;99303.84;;;0.89;100.00
64521;BME280;50896;46.714;17.322;2024-01-07T11:18:20;99301.91;;;0.81;100.00
64521;BME280;50896;46.714;17.322;2024-01-07T11:20:48;99292.69;;;0.66;100.00
64521;BME280;50896;46.714;17.322;2024-01-07T11:23:31;99305.72;;;0.77;100.00
64521;BME280;50896;46.714;17.322;2024-01-07T11:26:07;99299.66;;;0.77;100.00
64521;BME280;50896;46.714;17.322;2024-01-07T11:28:58;99306.34;;;0.70;100.00
64521;BME280;50896;46.714;17.322;2024-01-07T11:34:06;99312.03;;;0.75;100.00
64521;BME280;50896;46.714;17.322;2024-01-07T11:36:37;99305.47;;;0.80;100.00
64521;BME280;50896;46.714;17.322;2024-01-07T11:39:05;99311.91;;;0.76;100.00
64521;BME280;50896;46.714;17.322;2024-01-07T11:41:37;99318.09;;;0.75;100.00
64521;BME280;50896;46.714;17.322;2024-01-07T11:44:07;99309.28;;;0.76;100.00
64521;BME280;50896;46.714;17.322;2024-01-07T11:46:37;99314.19;;;0.70;100.00
64521;BME280;50896;46.714;17.322;2024-01-07T11:49:04;99316.56;;;0.73;100.00
64521;BME280;50896;46.714;17.322;2024-01-07T11:51:32;99316.09;;;0.67;100.00
64521;BME280;50896;46.714;17.322;2024-01-07T11:54:00;99315.84;;;0.71;100.00
64521;BME280;50896;46.714;17.322;2024-01-07T11:56:28;99323.22;;;0.77;100.00
64521;BME280;50896;46.714;17.322;2024-01-07T11:58:55;99324.09;;;0.66;100.00
64521;BME280;50896;46.714;17.322;2024-01-07T12:01:26;99331.69;;;0.69;100.00
64521;BME280;50896;46.714;17.322;2024-01-07T12:03:54;99315.19;;;0.57;100.00
64521;BME280;50896;46.714;17.322;2024-01-07T12:06:22;99327.31;;;0.58;100.00
64521;BME280;50896;46.714;17.322;2024-01-07T12:08:49;99326.84;;;0.64;100.00
64521;BME280;50896;46.714;17.322;2024-01-07T12:11:18;99325.91;;;0.54;100.00
64521;BME280;50896;46.714;17.322;2024-01-07T12:13:45;99338.53;;;0.49;100.00
64521;BME280;50896;46.714;17.322;2024-01-07T12:16:13;99325.25;;;0.41;100.00
64521;BME280;50896;46.714;17.322;2024-01-07T12:18:40;99322.50;;;0.42;100.00
64521;BME280;50896;46.714;17.322;2024-01-07T12:21:07;99337.44;;;0.51;100.00
64521;BME280;50896;46.714;17.322;2024-01-07T12:23:35;99329.25;;;0.56;100.00
64521;BME280;50896;46.714;17.322;2024-01-07T12:26:10;99336.38;;;0.54;100.00
64521;BME280;50896;46.714;17.322;2024-01-07T12:28:38;99335.19;;;0.47;100.00
64521;BME280;50896;46.714;17.322;2024-01-07T12:31:07;99343.88;;;0.47;100.00
64521;BME280;50896;46.714;17.322;2024-01-07T12:33:37;99344.84;;;0.46;100.00
64521;BME280;50896;46.714;17.322;2024-01-07T12:36:06;99338.84;;;0.56;100.00
64521;BME280;50896;46.714;17.322;2024-01-07T12:38:36;99339.34;;;0.49;100.00
64521;BME280;50896;46.714;17.322;2024-01-07T12:41:04;99351.63;;;0.49;100.00
64521;BME280;50896;46.714;17.322;2024-01-07T12:43:31;99350.78;;;0.48;100.00
64521;BME280;50896;46.714;17.322;2024-01-07T12:45:58;99349.31;;;0.56;100.00
64521;BME280;50896;46.714;17.322;2024-01-07T12:48:32;99352.66;;;0.58;100.00
64521;BME280;50896;46.714;17.322;2024-01-07T12:51:00;99364.97;;;0.67;100.00
64521;BME280;50896;46.714;17.322;2024-01-07T12:53:27;99373.41;;;0.71;100.00
64521;BME280;50896;46.714;17.322;2024-01-07T12:55:54;99371.34;;;0.53;100.00